Woodbine, Iowa
Current Conditions -  °F | °C
As of 10:55 PM on Friday 19 Dec 2014 (Local Time) from KHNR Reporting Station
Haze Haze  
Wind Chill: 23°   Ceiling: 700
Heat Index: 30°   Visibility: 5mi
Dew Point: 30°   Wind: 8mph
Humidity: 100%   Direction: 170°S
Pressure: 30.19"   Gusts: NA
Location:  41.74°N, 95.7°W
Report Text: KHNR 200455Z AUTO 17007KT 5SM BR OVC007 M01/M01 A3019 RMK AO2
Loading
Personal Weather Stations






























Interactive Weather Map New forecast layout! Learn more

10-Day Weather Forecast

Advertisements
Track Severe Weather on mobile